Time;durP1;ratioP1;P1;durP2;ratioP2;P2;SDS_P1;SDS_P2;PMS_P1;PMS_P2;Temp;Humidity;BMP_temperature;BMP_pressure;BME280_temperature;BME280_humidity;BME280_pressure;Samples;Min_cycle;Max_cycle;Signal;HPM_P1;HPM_P2
2022/12/27 05:03:25;;;;;;;8.23;2.22;;;5.10;99.90;;;;;;4958503;28;20038;-67
2022/12/27 05:05:52;;;;;;;4.73;1.70;;;5.10;99.90;;;;;;4957954;29;20023;-67
2022/12/27 05:13:59;;;;;;;6.03;1.55;;;5.00;99.90;;;;;;4939747;29;20051;-67
2022/12/27 05:16:25;;;;;;;5.47;2.33;;;5.00;99.90;;;;;;4939524;29;20024;-67
2022/12/27 05:18:52;;;;;;;5.28;1.45;;;5.00;99.90;;;;;;4939369;29;20040;-67
2022/12/27 05:21:17;;;;;;;3.85;1.40;;;5.00;99.90;;;;;;4954078;29;20028;-67
2022/12/27 05:26:28;;;;;;;6.75;1.30;;;5.00;99.90;;;;;;4939692;29;20079;-67
2022/12/27 05:28:56;;;;;;;5.25;1.33;;;5.00;99.90;;;;;;4939473;29;20027;-67
2022/12/27 05:31:23;;;;;;;3.45;1.70;;;5.00;99.90;;;;;;4940400;29;20110;-67
2022/12/27 05:33:50;;;;;;;5.95;1.80;;;5.00;99.90;;;;;;4957957;28;20031;-67
2022/12/27 05:36:16;;;;;;;6.10;1.73;;;4.90;99.90;;;;;;4950344;28;20433;-68
2022/12/27 05:38:42;;;;;;;4.03;1.10;;;4.90;99.90;;;;;;4938721;29;20028;-67
2022/12/27 05:41:08;;;;;;;5.37;1.90;;;4.90;99.90;;;;;;4939125;29;20445;-67
2022/12/27 05:43:34;;;;;;;4.83;1.43;;;4.90;99.90;;;;;;4938012;29;20413;-67
2022/12/27 05:46:08;;;;;;;10.30;2.00;;;4.90;99.90;;;;;;4938722;29;20409;-67
2022/12/27 05:48:34;;;;;;;5.57;1.80;;;4.90;99.90;;;;;;4938073;29;20123;-68
2022/12/27 05:51:12;;;;;;;3.42;1.73;;;4.90;99.90;;;;;;4938650;29;20032;-67
2022/12/27 05:53:38;;;;;;;5.85;2.72;;;4.80;99.90;;;;;;4937531;29;20066;-66
2022/12/27 05:56:05;;;;;;;3.85;1.50;;;4.80;99.90;;;;;;4938483;29;20036;-67
2022/12/27 05:58:30;;;;;;;;;;;4.80;99.90;;;;;;4937297;29;20043;-67
2022/12/27 06:00:56;;;;;;;5.63;2.17;;;4.80;99.90;;;;;;4939118;29;19915;-67
2022/12/27 06:03:22;;;;;;;4.40;1.40;;;4.70;99.90;;;;;;4952953;29;20046;-67
2022/12/27 06:05:47;;;;;;;4.93;1.33;;;4.80;99.90;;;;;;4945250;28;20275;-66
2022/12/27 06:08:13;;;;;;;5.73;1.20;;;4.80;99.90;;;;;;4936725;29;20400;-67
2022/12/27 06:10:39;;;;;;;4.90;1.77;;;4.80;99.90;;;;;;4938447;29;20032;-67
2022/12/27 06:13:04;;;;;;;6.28;1.48;;;4.70;99.90;;;;;;4953553;29;20481;-68
2022/12/27 06:15:30;;;;;;;4.30;1.50;;;4.70;99.90;;;;;;4952556;29;20043;-67
2022/12/27 06:17:57;;;;;;;9.35;1.73;;;4.70;99.90;;;;;;4938229;29;20038;-67
2022/12/27 06:20:23;;;;;;;6.75;1.40;;;4.80;99.90;;;;;;4936377;29;20059;-66
2022/12/27 06:22:49;;;;;;;3.93;1.33;;;4.70;99.90;;;;;;4938679;29;20492;-67
2022/12/27 06:25:14;;;;;;;6.10;1.67;;;4.70;99.90;;;;;;4937837;29;20111;-68
2022/12/27 06:27:40;;;;;;;4.77;1.83;;;4.70;99.90;;;;;;4937880;29;20096;-67
2022/12/27 06:30:06;;;;;;;5.95;1.60;;;4.60;99.90;;;;;;4936345;29;20052;-67
2022/12/27 06:32:35;;;;;;;6.97;1.92;;;4.60;99.90;;;;;;4940214;29;20028;-66
2022/12/27 06:35:01;;;;;;;6.15;1.55;;;4.70;99.90;;;;;;4952442;29;20040;-68
2022/12/27 06:37:29;;;;;;;6.80;1.40;;;4.70;99.90;;;;;;4938020;29;20083;-67
2022/12/27 06:39:54;;;;;;;8.27;1.85;;;4.70;99.90;;;;;;4951999;29;20058;-67
2022/12/27 06:42:20;;;;;;;8.87;1.43;;;4.60;99.90;;;;;;4937289;29;20490;-68
2022/12/27 06:44:45;;;;;;;5.87;1.43;;;4.60;99.90;;;;;;4938647;29;20075;-67
2022/12/27 06:47:11;;;;;;;4.30;1.30;;;4.70;99.90;;;;;;4918266;29;20028;-68
2022/12/27 06:49:36;;;;;;;4.10;1.40;;;4.70;99.90;;;;;;4917175;29;20047;-67
2022/12/27 06:52:03;;;;;;;5.80;1.40;;;4.60;99.90;;;;;;4930593;29;20093;-69
2022/12/27 06:54:28;;;;;;;5.57;1.40;;;4.70;99.90;;;;;;4936852;29;20028;-68
2022/12/27 06:56:55;;;;;;;4.17;1.43;;;4.60;99.90;;;;;;4936656;29;20474;-67
2022/12/27 06:59:22;;;;;;;3.28;1.60;;;4.70;99.90;;;;;;4936761;29;20106;-67
2022/12/27 07:01:47;;;;;;;7.32;1.50;;;4.60;99.90;;;;;;4934192;29;20523;-67
2022/12/27 07:04:13;;;;;;;2.87;1.30;;;4.60;99.90;;;;;;4934489;29;20059;-68
2022/12/27 07:06:38;;;;;;;4.70;1.50;;;4.60;99.90;;;;;;4936743;29;20110;-68
2022/12/27 07:09:04;;;;;;;2.70;1.53;;;4.60;99.90;;;;;;4937275;29;20039;-68
2022/12/27 07:11:35;;;;;;;1.95;1.20;;;4.60;99.90;;;;;;4922481;29;20031;-69
2022/12/27 07:14:02;;;;;;;8.77;1.80;;;4.40;99.90;;;;;;4918424;29;20120;-67
2022/12/27 07:16:31;;;;;;;5.22;1.50;;;4.50;99.90;;;;;;4919771;29;20036;-66
2022/12/27 07:18:58;;;;;;;5.53;1.33;;;4.60;99.90;;;;;;4916507;29;20441;-67
2022/12/27 07:21:25;;;;;;;5.07;1.67;;;4.60;99.90;;;;;;4919901;29;20068;-67
2022/12/27 07:23:51;;;;;;;2.75;1.35;;;4.50;99.90;;;;;;4921806;29;20036;-68
2022/12/27 07:26:23;;;;;;;5.13;1.70;;;4.50;99.90;;;;;;4919007;29;20070;-68
2022/12/27 07:28:52;;;;;;;4.38;1.60;;;4.50;99.90;;;;;;4919993;29;20036;-67
2022/12/27 07:31:21;;;;;;;3.92;1.33;;;4.50;99.90;;;;;;4919985;29;20045;-68
2022/12/27 07:33:47;;;;;;;5.75;1.48;;;4.60;99.90;;;;;;4954635;29;20030;-67
2022/12/27 07:36:15;;;;;;;3.73;1.47;;;4.60;99.90;;;;;;4956333;29;20023;-66
2022/12/27 07:38:42;;;;;;;6.93;2.10;;;4.50;99.90;;;;;;4955665;28;20032;-67
2022/12/27 07:41:09;;;;;;;4.75;1.60;;;4.60;99.90;;;;;;4955653;28;20024;-67
2022/12/27 07:43:35;;;;;;;7.63;1.73;;;4.70;99.90;;;;;;4955996;28;20107;-67
2022/12/27 07:46:17;;;;;;;6.00;1.90;;;4.70;99.90;;;;;;4956128;28;20051;-67
2022/12/27 07:48:44;;;;;;;4.78;1.85;;;4.70;99.90;;;;;;4956011;29;20042;-69
2022/12/27 07:51:10;;;;;;;3.20;1.60;;;4.60;99.90;;;;;;4956133;28;20031;-68
2022/12/27 07:53:36;;;;;;;;;;;4.70;99.90;;;;;;4956319;28;20042;-68
2022/12/27 07:56:11;;;;;;;10.18;1.90;;;4.60;99.90;;;;;;4955701;28;19911;-67
2022/12/27 07:58:42;;;;;;;7.20;3.67;;;4.70;99.90;;;;;;4954670;29;20042;-67
2022/12/27 08:01:09;;;;;;;7.38;2.03;;;4.70;99.90;;;;;;4955270;28;20059;-67
2022/12/27 08:03:35;;;;;;;6.18;2.47;;;4.80;99.90;;;;;;4955303;28;20484;-68
2022/12/27 08:06:01;;;;;;;4.35;1.80;;;4.80;99.90;;;;;;4955693;28;20027;-69
2022/12/27 08:08:42;;;;;;;6.40;2.08;;;4.80;99.90;;;;;;4934672;29;20047;-68
2022/12/27 08:11:08;;;;;;;14.02;4.03;;;4.80;99.90;;;;;;4931667;29;20110;-68
2022/12/27 08:13:35;;;;;;;5.07;1.95;;;4.80;99.90;;;;;;4929620;29;20442;-68
2022/12/27 08:16:05;;;;;;;6.68;2.85;;;4.80;99.90;;;;;;4935038;29;20536;-70
2022/12/27 08:18:30;;;;;;;9.50;2.80;;;4.90;99.90;;;;;;4935469;29;20393;-69
2022/12/27 08:20:56;;;;;;;11.13;3.03;;;4.80;99.90;;;;;;4928162;29;20024;-69
2022/12/27 08:23:21;;;;;;;9.10;2.73;;;4.90;99.90;;;;;;4917326;29;20044;-69
2022/12/27 08:25:47;;;;;;;7.33;2.50;;;4.90;99.90;;;;;;4916937;29;20028;-69
2022/12/27 08:28:15;;;;;;;9.87;3.40;;;4.90;99.90;;;;;;4917736;29;20481;-69
2022/12/27 08:30:42;;;;;;;7.13;2.65;;;5.00;99.90;;;;;;4916123;29;20032;-70
2022/12/27 08:33:08;;;;;;;6.50;2.50;;;5.10;99.90;;;;;;4947675;29;20027;-69
2022/12/27 08:35:42;;;;;;;10.07;2.30;;;5.20;99.90;;;;;;4954164;29;22396;-69
2022/12/27 08:38:08;;;;;;;7.20;2.20;;;5.40;99.90;;;;;;4954370;29;20035;-69
2022/12/27 08:40:40;;;;;;;9.65;2.42;;;5.50;99.90;;;;;;4955551;28;20037;-71
2022/12/27 08:43:06;;;;;;;11.25;3.47;;;5.50;99.90;;;;;;4955879;28;20106;-71
2022/12/27 08:45:32;;;;;;;10.55;3.95;;;5.50;99.90;;;;;;4954757;29;20024;-68
2022/12/27 08:48:01;;;;;;;7.83;2.13;;;5.50;99.90;;;;;;4955433;28;20038;-69
2022/12/27 08:50:27;;;;;;;5.20;2.20;;;5.60;99.90;;;;;;4955685;28;20023;-69
2022/12/27 08:52:56;;;;;;;7.07;2.50;;;5.70;99.90;;;;;;4955961;28;20538;-70
2022/12/27 08:55:22;;;;;;;6.43;2.40;;;5.60;99.90;;;;;;4954708;29;20463;-69
2022/12/27 08:57:47;;;;;;;5.93;2.40;;;5.60;99.90;;;;;;4955395;28;20051;-69
2022/12/27 09:00:13;;;;;;;9.03;2.40;;;5.70;99.90;;;;;;4954585;28;20388;-69
2022/12/27 09:02:39;;;;;;;6.10;1.85;;;5.70;99.90;;;;;;4954352;29;20181;-69
2022/12/27 09:05:05;;;;;;;5.30;1.83;;;5.70;99.90;;;;;;4954104;29;20442;-70
2022/12/27 09:07:31;;;;;;;4.50;1.90;;;5.60;99.90;;;;;;4954995;29;20034;-69
2022/12/27 09:09:57;;;;;;;3.40;1.75;;;5.70;99.90;;;;;;4953819;29;20027;-71
2022/12/27 09:12:23;;;;;;;3.57;1.47;;;5.60;99.90;;;;;;4954427;28;20122;-67
2022/12/27 09:14:58;;;;;;;5.93;1.60;;;5.70;99.90;;;;;;4955193;28;20271;-67
2022/12/27 09:17:24;;;;;;;5.03;2.30;;;5.70;99.90;;;;;;4955417;28;20023;-69
2022/12/27 09:19:49;;;;;;;3.90;1.77;;;5.70;99.90;;;;;;4955385;29;20034;-67
2022/12/27 09:22:15;;;;;;;5.67;2.17;;;5.80;99.90;;;;;;4953957;28;20100;-67
2022/12/27 09:24:40;;;;;;;6.10;2.10;;;5.90;99.90;;;;;;4955173;29;20034;-66
2022/12/27 09:27:06;;;;;;;6.70;2.97;;;5.90;99.90;;;;;;4953136;28;20103;-66
2022/12/27 09:29:34;;;;;;;25.67;8.47;;;5.90;99.90;;;;;;4958123;29;20020;-68
2022/12/27 09:32:00;;;;;;;10.80;4.10;;;5.90;99.90;;;;;;4957776;28;20027;-67
2022/12/27 09:34:26;;;;;;;6.25;2.00;;;5.90;99.90;;;;;;4957801;29;20027;-67
2022/12/27 09:36:51;;;;;;;5.40;2.83;;;5.90;99.90;;;;;;4956646;29;20059;-67
2022/12/27 09:39:17;;;;;;;7.90;3.33;;;5.90;99.90;;;;;;4957806;28;20248;-67
2022/12/27 09:41:59;;;;;;;8.83;4.17;;;6.00;99.90;;;;;;4956573;28;20046;-67
2022/12/27 09:44:43;;;;;;;6.80;2.42;;;6.00;99.90;;;;;;4958047;28;20027;-68
2022/12/27 09:47:16;;;;;;;5.10;2.13;;;6.00;99.90;;;;;;4945175;29;20397;-68
2022/12/27 09:49:51;;;;;;;7.20;2.05;;;6.10;99.90;;;;;;4930612;29;20087;-68
2022/12/27 09:52:23;;;;;;;6.97;2.33;;;6.10;99.90;;;;;;4927897;29;20043;-67
2022/12/27 09:55:05;;;;;;;4.90;1.90;;;6.30;99.90;;;;;;4934416;29;20035;-67
2022/12/27 09:57:41;;;;;;;6.60;2.30;;;6.40;99.90;;;;;;4938605;29;20052;-68
2022/12/27 10:00:23;;;;;;;6.80;2.17;;;6.50;99.90;;;;;;4939586;29;20111;-67
2022/12/27 10:02:49;;;;;;;5.55;1.95;;;6.60;99.90;;;;;;4950894;29;20600;-67
2022/12/27 10:05:25;;;;;;;13.82;2.55;;;6.60;99.90;;;;;;4958330;29;20068;-67
2022/12/27 10:08:21;;;;;;;4.78;2.13;;;6.80;99.90;;;;;;4956368;29;20034;-68
2022/12/27 10:11:34;;;;;;;7.13;2.63;;;7.00;99.90;;;;;;4957598;28;20468;-68
2022/12/27 10:14:04;;;;;;;4.65;2.17;;;7.10;99.90;;;;;;4957688;29;20337;-68
2022/12/27 10:17:01;;;;;;;5.28;2.67;;;7.30;99.90;;;;;;4957921;28;20027;-66
2022/12/27 10:19:45;;;;;;;7.35;3.00;;;7.40;99.90;;;;;;4952878;29;20039;-66
2022/12/27 10:22:18;;;;;;;9.25;3.65;;;7.60;99.90;;;;;;4956965;28;20106;-66
2022/12/27 10:24:49;;;;;;;6.80;3.42;;;7.70;99.90;;;;;;4957469;28;20027;-67
2022/12/27 10:27:19;;;;;;;12.02;4.60;;;7.70;99.90;;;;;;4959325;29;20023;-67
2022/12/27 10:29:47;;;;;;;6.57;3.13;;;7.80;99.90;;;;;;4960449;29;20035;-67
2022/12/27 10:32:14;;;;;;;8.57;3.90;;;7.90;99.90;;;;;;4958211;28;20031;-67
2022/12/27 10:34:40;;;;;;;8.05;3.08;;;8.00;99.90;;;;;;4958561;28;20038;-68
2022/12/27 10:37:07;;;;;;;6.38;2.90;;;8.10;99.90;;;;;;4956911;29;20443;-67
2022/12/27 10:39:35;;;;;;;9.45;3.40;;;8.30;99.90;;;;;;4939234;28;20115;-65
2022/12/27 10:42:28;;;;;;;5.97;2.75;;;8.40;99.90;;;;;;4917591;29;20093;-67
2022/12/27 10:45:26;;;;;;;8.52;2.58;;;8.40;99.90;;;;;;4918597;29;20399;-66
2022/12/27 10:47:55;;;;;;;5.82;2.30;;;8.40;99.90;;;;;;4928457;29;20055;-66
2022/12/27 10:50:23;;;;;;;8.00;2.67;;;8.40;99.90;;;;;;4936804;29;20024;-66
2022/12/27 10:52:50;;;;;;;5.90;2.08;;;8.50;99.90;;;;;;4937120;29;20114;-66
2022/12/27 10:55:37;;;;;;;9.73;2.42;;;8.60;99.90;;;;;;4926718;29;20026;-67
2022/12/27 10:58:25;;;;;;;8.35;2.05;;;8.60;99.90;;;;;;4918941;29;20147;-66
2022/12/27 11:00:55;;;;;;;7.03;1.98;;;8.60;99.90;;;;;;4936740;29;20119;-67
2022/12/27 11:03:21;;;;;;;4.68;1.98;;;8.60;99.90;;;;;;4954168;29;20047;-67
2022/12/27 11:05:59;;;;;;;7.13;1.80;;;8.70;99.90;;;;;;4956397;29;20093;-66
2022/12/27 11:08:25;;;;;;;6.07;1.58;;;8.80;99.90;;;;;;4956362;28;20090;-66
2022/12/27 11:11:11;;;;;;;4.53;1.63;;;8.80;99.90;;;;;;4952529;28;20035;-66
2022/12/27 11:13:37;;;;;;;6.90;1.40;;;8.70;99.90;;;;;;4935566;29;20032;-67
2022/12/27 11:16:03;;;;;;;7.60;1.77;;;8.70;99.90;;;;;;4933198;29;20119;-67
2022/12/27 11:18:33;;;;;;;5.22;1.50;;;8.70;99.90;;;;;;4935445;29;20030;-67
2022/12/27 11:20:59;;;;;;;8.13;2.20;;;8.80;99.90;;;;;;4935712;29;20027;-68
2022/12/27 11:23:34;;;;;;;5.32;2.05;;;8.70;99.90;;;;;;4934534;29;20042;-68
2022/12/27 11:26:06;;;;;;;7.82;1.60;;;8.80;99.90;;;;;;4934963;29;20103;-68
2022/12/27 11:28:43;;;;;;;5.28;1.67;;;8.90;99.90;;;;;;4933385;29;20042;-68
2022/12/27 11:31:16;;;;;;;6.38;1.98;;;9.00;99.90;;;;;;4936751;29;20038;-69
2022/12/27 11:33:48;;;;;;;5.68;1.33;;;8.90;99.90;;;;;;4918428;29;20040;-68
2022/12/27 11:36:21;;;;;;;3.38;1.70;;;8.90;99.90;;;;;;4917711;29;20028;-68
2022/12/27 11:38:49;;;;;;;3.88;1.25;;;8.80;99.90;;;;;;4917777;29;20028;-68
2022/12/27 11:41:50;;;;;;;3.92;1.30;;;8.80;99.90;;;;;;4931928;29;20052;-68
2022/12/27 11:44:25;;;;;;;4.13;1.30;;;8.80;99.90;;;;;;4915141;29;20493;-68
2022/12/27 11:47:02;;;;;;;4.88;1.98;;;8.80;99.90;;;;;;4912585;29;20056;-68
2022/12/27 11:49:34;;;;;;;6.60;1.90;;;8.70;99.90;;;;;;4915178;29;20482;-69
2022/12/27 11:52:13;;;;;;;4.93;1.75;;;8.70;99.90;;;;;;4914450;29;20091;-68
2022/12/27 11:55:14;;;;;;;5.53;1.80;;;8.80;99.90;;;;;;4915642;29;20397;-68
2022/12/27 11:58:14;;;;;;;6.30;1.50;;;8.90;99.90;;;;;;4915334;29;20561;-68
2022/12/27 12:01:10;;;;;;;5.80;1.20;;;8.90;99.90;;;;;;4915137;29;20127;-68
2022/12/27 12:03:46;;;;;;;5.97;2.03;;;9.00;99.90;;;;;;4914946;29;20024;-69
2022/12/27 12:06:48;;;;;;;6.45;1.92;;;8.90;99.90;;;;;;4915414;29;20040;-68
2022/12/27 12:09:28;;;;;;;6.47;1.83;;;8.90;99.90;;;;;;4915191;29;20131;-68
2022/12/27 12:12:15;;;;;;;5.72;1.42;;;8.90;99.90;;;;;;4915439;29;20086;-67
2022/12/27 12:15:11;;;;;;;4.35;1.85;;;9.00;99.90;;;;;;4915624;29;20084;-68
2022/12/27 12:18:01;;;;;;;4.90;1.55;;;9.00;99.90;;;;;;4915144;29;20029;-68
2022/12/27 12:20:48;;;;;;;5.28;1.92;;;9.10;99.90;;;;;;4924152;29;20054;-68
2022/12/27 12:23:56;;;;;;;5.00;1.38;;;9.20;99.90;;;;;;4927637;29;20038;-68
2022/12/27 12:26:25;;;;;;;5.63;1.90;;;9.10;99.90;;;;;;4924821;29;20027;-68
2022/12/27 12:29:27;;;;;;;4.80;1.30;;;9.20;99.90;;;;;;4929708;29;20028;-71
2022/12/27 12:32:25;;;;;;;5.45;1.77;;;9.20;99.90;;;;;;4940414;29;20050;-68
2022/12/27 12:35:03;;;;;;;5.85;1.70;;;9.30;99.90;;;;;;4935176;29;20036;-67
2022/12/27 12:37:45;;;;;;;3.65;1.73;;;9.40;99.90;;;;;;4928403;29;20028;-69
2022/12/27 12:40:52;;;;;;;6.13;1.95;;;9.50;99.90;;;;;;4932962;29;20056;-68
2022/12/27 12:43:51;;;;;;;4.88;1.48;;;9.50;99.90;;;;;;4934962;29;20400;-68
2022/12/27 12:46:27;;;;;;;8.48;2.28;;;9.40;99.90;;;;;;4932070;29;20433;-71
2022/12/27 12:49:31;;;;;;;6.97;1.95;;;9.30;99.90;;;;;;4952693;29;20051;-76
2022/12/27 12:52:15;;;;;;;7.60;1.48;;;9.30;99.90;;;;;;4953350;29;20027;-75
2022/12/27 12:55:01;;;;;;;6.60;1.58;;;9.20;99.90;;;;;;4950512;29;20031;-74
2022/12/27 12:57:35;;;;;;;7.10;1.70;;;9.20;99.90;;;;;;4942149;29;20452;-73
2022/12/27 13:00:27;;;;;;;6.60;1.70;;;9.20;99.90;;;;;;4936398;29;20541;-74
2022/12/27 13:03:20;;;;;;;4.30;1.70;;;9.20;99.90;;;;;;4951765;29;20062;-73
2022/12/27 13:06:03;;;;;;;6.13;1.90;;;9.10;99.90;;;;;;4959039;29;20130;-75
2022/12/27 13:08:43;;;;;;;4.55;1.80;;;9.10;99.90;;;;;;4959585;28;20027;-73
2022/12/27 13:11:37;;;;;;;6.03;1.38;;;9.10;99.90;;;;;;4957436;28;20114;-74
2022/12/27 13:14:18;;;;;;;10.75;2.30;;;9.10;99.90;;;;;;4960220;28;20106;-74
2022/12/27 13:17:15;;;;;;;8.50;1.42;;;9.10;99.90;;;;;;4957542;28;20030;-73
2022/12/27 13:19:54;;;;;;;4.50;1.63;;;9.10;99.90;;;;;;4942252;28;20028;-75
2022/12/27 13:22:39;;;;;;;6.40;1.60;;;9.10;99.90;;;;;;4939855;29;20469;-74
2022/12/27 13:25:27;;;;;;;7.80;1.50;;;9.10;99.90;;;;;;4939555;29;20039;-74
2022/12/27 13:28:08;;;;;;;3.92;1.40;;;9.00;99.90;;;;;;4954021;28;20078;-74
2022/12/27 13:31:16;;;;;;;6.43;1.52;;;9.00;99.90;;;;;;4938098;29;20035;-73
2022/12/27 13:34:07;;;;;;;5.68;1.45;;;9.00;99.90;;;;;;4919902;29;20135;-73
2022/12/27 13:36:48;;;;;;;3.80;1.25;;;8.90;99.90;;;;;;4918623;29;20024;-74
2022/12/27 13:39:26;;;;;;;4.90;1.55;;;9.00;99.90;;;;;;4918680;29;20115;-73
2022/12/27 13:42:21;;;;;;;4.22;1.52;;;9.00;99.90;;;;;;4945380;28;20047;-73
2022/12/27 13:45:16;;;;;;;9.18;1.52;;;8.90;99.90;;;;;;4937689;29;20055;-73
2022/12/27 13:48:28;;;;;;;6.65;1.33;;;9.00;99.90;;;;;;4937507;29;20515;-74
2022/12/27 13:51:24;;;;;;;6.38;1.48;;;9.00;99.90;;;;;;4930320;29;20091;-73
2022/12/27 13:54:21;;;;;;;6.50;2.08;;;9.10;99.90;;;;;;4938728;29;20132;-74
2022/12/27 13:57:12;;;;;;;5.03;1.58;;;9.00;99.90;;;;;;4937735;29;20456;-74
2022/12/27 13:59:54;;;;;;;3.50;1.65;;;9.00;99.90;;;;;;4937565;29;20366;-74
2022/12/27 14:02:31;;;;;;;5.63;1.83;;;9.00;99.90;;;;;;4947155;29;20380;-74
2022/12/27 14:04:59;;;;;;;4.78;1.67;;;9.00;99.90;;;;;;4956223;29;20024;-74
2022/12/27 14:07:28;;;;;;;5.03;1.55;;;9.00;99.90;;;;;;4957506;28;20027;-74
2022/12/27 14:10:11;;;;;;;5.68;1.42;;;8.90;99.90;;;;;;4954688;29;20491;-73
2022/12/27 14:13:02;;;;;;;6.55;1.70;;;8.90;99.90;;;;;;4932761;29;20035;-74
2022/12/27 14:16:14;;;;;;;3.35;1.30;;;8.90;99.90;;;;;;4938202;29;20031;-73
2022/12/27 14:18:54;;;;;;;4.53;1.10;;;8.80;99.90;;;;;;4936291;29;20126;-72
2022/12/27 14:21:19;;;;;;;4.45;1.80;;;8.80;99.90;;;;;;4938178;29;20392;-74
2022/12/27 14:24:19;;;;;;;6.07;1.53;;;8.80;99.90;;;;;;4938062;29;20102;-74
2022/12/27 14:27:16;;;;;;;8.07;1.75;;;8.70;99.90;;;;;;4938094;29;20503;-75
2022/12/27 14:30:17;;;;;;;6.35;1.15;;;8.70;99.90;;;;;;4937006;29;20039;-75
2022/12/27 14:33:09;;;;;;;6.13;1.85;;;8.60;99.90;;;;;;4950069;29;20101;-74
2022/12/27 14:36:12;;;;;;;6.22;1.95;;;8.50;99.90;;;;;;4955820;29;20495;-75
2022/12/27 14:38:50;;;;;;;5.82;1.70;;;8.60;99.90;;;;;;4955990;29;20031;-75
2022/12/27 14:41:57;;;;;;;6.03;1.60;;;8.40;99.90;;;;;;4957439;28;20023;-74
2022/12/27 14:44:51;;;;;;;8.85;1.60;;;8.30;99.90;;;;;;4955062;29;20027;-74
2022/12/27 14:47:28;;;;;;;6.38;1.55;;;8.30;99.90;;;;;;4956808;29;20393;-74
2022/12/27 14:50:20;;;;;;;6.25;1.63;;;8.20;99.90;;;;;;4937276;29;20038;-75
2022/12/27 14:53:20;;;;;;;9.52;1.40;;;8.20;99.90;;;;;;4936363;29;20083;-74
2022/12/27 14:56:08;;;;;;;3.95;1.52;;;8.20;99.90;;;;;;4936276;29;20039;-74
2022/12/27 14:58:33;;;;;;;;;;;8.10;99.90;;;;;;4936595;29;20032;-74
2022/12/27 15:01:15;;;;;;;6.82;1.42;;;8.00;99.90;;;;;;4951999;28;20420;-74
2022/12/27 15:03:53;;;;;;;4.80;1.70;;;8.00;99.90;;;;;;4933095;29;20032;-74
2022/12/27 15:06:41;;;;;;;5.25;1.92;;;8.10;99.90;;;;;;4917574;29;20035;-75
2022/12/27 15:09:12;;;;;;;6.82;1.45;;;8.10;99.90;;;;;;4917354;29;20127;-74
2022/12/27 15:11:40;;;;;;;4.45;1.75;;;8.00;99.90;;;;;;4934843;29;20024;-74
2022/12/27 15:14:37;;;;;;;9.43;1.83;;;8.00;99.90;;;;;;4921606;29;20032;-73
2022/12/27 15:17:05;;;;;;;9.52;1.60;;;7.90;99.90;;;;;;4935863;29;20028;-75
2022/12/27 15:19:43;;;;;;;7.88;2.10;;;7.90;99.90;;;;;;4935808;29;20023;-74
2022/12/27 15:22:36;;;;;;;6.07;1.50;;;8.00;99.90;;;;;;4937037;29;20034;-74
2022/12/27 15:25:20;;;;;;;5.57;1.70;;;7.90;99.90;;;;;;4934805;29;20418;-75
2022/12/27 15:28:04;;;;;;;6.05;1.55;;;7.90;99.90;;;;;;4936788;29;20031;-74
2022/12/27 15:30:50;;;;;;;7.20;2.30;;;7.80;99.90;;;;;;4936706;29;20342;-74
2022/12/27 15:33:57;;;;;;;8.23;1.70;;;7.80;99.90;;;;;;4953035;29;20023;-75
2022/12/27 15:36:39;;;;;;;5.65;1.70;;;7.60;99.90;;;;;;4954343;29;20062;-74
2022/12/27 15:39:25;;;;;;;8.20;2.10;;;7.60;99.90;;;;;;4955577;28;20015;-73
2022/12/27 15:42:22;;;;;;;7.22;2.22;;;7.50;99.90;;;;;;4935685;29;20028;-74
2022/12/27 15:44:59;;;;;;;9.20;2.45;;;7.50;99.90;;;;;;4936030;29;20481;-74
2022/12/27 15:47:43;;;;;;;;;;;7.60;99.90;;;;;;4937297;29;20035;-75
2022/12/27 15:50:20;;;;;;;8.20;2.60;;;7.70;99.90;;;;;;4951885;29;19906;-72
2022/12/27 15:53:03;;;;;;;7.82;2.25;;;7.60;99.90;;;;;;4937758;29;20055;-73
2022/12/27 15:55:57;;;;;;;7.63;2.30;;;7.60;99.90;;;;;;4952237;29;20122;-73
2022/12/27 15:58:23;;;;;;;7.97;2.15;;;7.50;99.90;;;;;;4956607;29;20035;-72
2022/12/27 16:01:26;;;;;;;5.25;2.00;;;7.50;99.90;;;;;;4942568;29;20051;-72
2022/12/27 16:03:53;;;;;;;5.30;2.08;;;7.50;99.90;;;;;;4925261;29;20151;-73
2022/12/27 16:06:33;;;;;;;6.90;2.05;;;7.40;99.90;;;;;;4923370;29;20425;-70
2022/12/27 16:09:20;;;;;;;7.03;2.30;;;7.30;99.90;;;;;;4928289;29;20027;-70
2022/12/27 16:11:58;;;;;;;7.25;2.28;;;7.30;99.90;;;;;;4947286;29;20031;-70
2022/12/27 16:14:30;;;;;;;10.38;2.90;;;7.30;99.90;;;;;;4931904;29;20068;-70
2022/12/27 16:17:04;;;;;;;7.20;2.63;;;7.20;99.90;;;;;;4928542;29;20024;-69
2022/12/27 16:19:37;;;;;;;6.00;2.88;;;7.20;99.90;;;;;;4940367;29;20118;-69
2022/12/27 16:22:20;;;;;;;25.10;10.15;;;7.10;99.90;;;;;;4927703;29;20019;-69
2022/12/27 16:24:46;;;;;;;10.68;4.47;;;7.10;99.90;;;;;;4938564;29;20024;-67
2022/12/27 16:27:26;;;;;;;7.43;3.30;;;7.10;99.90;;;;;;4940145;29;20556;-66
2022/12/27 16:29:52;;;;;;;7.57;3.45;;;7.00;99.90;;;;;;4935753;29;20027;-70
2022/12/27 16:32:22;;;;;;;;;;;7.00;99.90;;;;;;4935910;29;20040;-72
2022/12/27 16:34:54;;;;;;;8.30;3.55;;;6.90;99.90;;;;;;4916953;29;19907;-71
2022/12/27 16:37:47;;;;;;;9.82;3.85;;;6.90;99.90;;;;;;4916856;29;20042;-73
2022/12/27 16:40:33;;;;;;;12.57;3.45;;;6.90;99.90;;;;;;4908566;29;20044;-75
2022/12/27 16:43:04;;;;;;;11.98;3.92;;;6.90;99.90;;;;;;4938072;29;20471;-76
2022/12/27 16:45:47;;;;;;;10.68;4.05;;;6.80;99.90;;;;;;4943866;29;20032;-68
2022/12/27 16:48:58;;;;;;;12.68;5.28;;;6.80;99.90;;;;;;4921362;29;20028;-68
2022/12/27 16:51:33;;;;;;;13.43;4.10;;;6.80;99.90;;;;;;4935759;29;20059;-68
2022/12/27 16:54:24;;;;;;;13.98;4.70;;;6.70;99.90;;;;;;4920626;29;20111;-69
2022/12/27 16:56:50;;;;;;;19.80;9.52;;;6.50;99.90;;;;;;4931511;29;20490;-68
2022/12/27 16:59:55;;;;;;;12.73;4.97;;;6.40;99.90;;;;;;4920930;29;20024;-71
2022/12/27 17:02:36;;;;;;;10.63;4.78;;;6.40;99.90;;;;;;4922655;29;20040;-70
2022/12/27 17:05:22;;;;;;;12.63;5.50;;;6.40;99.90;;;;;;4922228;29;20024;-71
2022/12/27 17:07:52;;;;;;;9.50;4.50;;;6.40;99.90;;;;;;4921216;29;20490;-69
2022/12/27 17:10:27;;;;;;;12.40;4.43;;;6.30;99.90;;;;;;4935752;29;20112;-69
2022/12/27 17:13:16;;;;;;;13.13;5.15;;;6.30;99.90;;;;;;4921308;29;20090;-68
2022/12/27 17:16:03;;;;;;;12.60;5.28;;;6.40;99.90;;;;;;4922007;29;20115;-69
2022/12/27 17:18:36;;;;;;;13.13;5.30;;;6.50;99.90;;;;;;4923288;29;20048;-68
2022/12/27 17:21:25;;;;;;;14.77;6.22;;;6.40;99.90;;;;;;4940480;29;20063;-71
2022/12/27 17:23:53;;;;;;;13.35;5.50;;;6.50;99.90;;;;;;4947586;29;20051;-69
2022/12/27 17:26:31;;;;;;;17.80;8.00;;;6.40;99.90;;;;;;4941337;29;20524;-69
2022/12/27 17:29:06;;;;;;;11.70;5.00;;;6.40;99.90;;;;;;4941135;29;20115;-69
2022/12/27 17:32:00;;;;;;;15.52;5.30;;;6.40;99.90;;;;;;4936591;29;20035;-68
2022/12/27 17:34:28;;;;;;;13.18;4.88;;;6.30;99.90;;;;;;4928566;29;20019;-69
2022/12/27 17:37:10;;;;;;;12.10;5.47;;;6.30;99.90;;;;;;4939213;29;20038;-70
2022/12/27 17:40:09;;;;;;;10.07;4.50;;;6.20;99.90;;;;;;4933583;29;20027;-69
2022/12/27 17:45:55;;;;;;;8.07;3.85;;;6.40;99.90;;;;;;4939852;29;20398;-70
2022/12/27 17:48:29;;;;;;;9.90;4.15;;;6.40;99.90;;;;;;4935969;29;20142;-70
2022/12/27 17:51:08;;;;;;;10.82;4.30;;;6.30;99.90;;;;;;4952985;28;20039;-68
2022/12/27 17:59:23;;;;;;;10.60;4.82;;;6.10;99.90;;;;;;4938905;29;20042;-70
2022/12/27 18:01:56;;;;;;;10.57;4.38;;;6.10;99.90;;;;;;4943312;29;20089;-68
2022/12/27 18:04:34;;;;;;;10.50;4.95;;;6.00;99.90;;;;;;4937621;28;20500;-66
2022/12/27 18:07:02;;;;;;;16.30;5.85;;;6.00;99.90;;;;;;4934486;29;20390;-69
2022/12/27 18:09:36;;;;;;;12.57;5.63;;;6.10;99.90;;;;;;4925747;29;20086;-68
2022/12/27 18:12:22;;;;;;;11.50;4.97;;;6.10;99.90;;;;;;4934564;29;20055;-67
2022/12/27 18:15:03;;;;;;;13.70;4.50;;;6.10;99.90;;;;;;4938523;29;20028;-68
2022/12/27 18:17:44;;;;;;;11.93;5.43;;;6.10;99.90;;;;;;4937906;29;20036;-70
2022/12/27 18:20:40;;;;;;;12.60;6.05;;;6.00;99.90;;;;;;4936821;29;20079;-69
2022/12/27 18:23:12;;;;;;;10.00;5.10;;;5.90;99.90;;;;;;4917339;29;20040;-73
2022/12/27 18:25:44;;;;;;;12.50;5.07;;;5.90;99.90;;;;;;4902020;29;20516;-69
2022/12/27 18:28:31;;;;;;;11.70;4.72;;;5.80;99.90;;;;;;4917727;29;20040;-75
2022/12/27 18:31:17;;;;;;;;;;;5.80;99.90;;;;;;4902741;29;20592;-71
2022/12/27 18:33:45;;;;;;;13.23;4.90;;;5.90;99.90;;;;;;4898170;29;20340;-71
2022/12/27 18:36:18;;;;;;;12.18;5.90;;;5.80;99.90;;;;;;4898171;29;20139;-72
2022/12/27 18:38:49;;;;;;;13.48;5.30;;;5.90;99.90;;;;;;4898155;29;20502;-69
2022/12/27 18:41:18;;;;;;;18.73;7.80;;;5.90;99.90;;;;;;4898123;29;20041;-69
2022/12/27 18:43:46;;;;;;;14.80;6.57;;;5.90;99.90;;;;;;4882254;29;20450;-72
2022/12/27 18:46:28;;;;;;;17.88;7.30;;;5.90;99.90;;;;;;4910821;29;20555;-70
2022/12/27 18:48:55;;;;;;;16.42;7.28;;;5.80;99.90;;;;;;4917252;29;20040;-70
2022/12/27 18:51:27;;;;;;;17.90;7.90;;;5.80;99.90;;;;;;4900602;29;20024;-70
2022/12/27 18:53:53;;;;;;;18.33;7.78;;;5.70;99.90;;;;;;4916378;29;20047;-69
2022/12/27 18:56:27;;;;;;;16.73;7.70;;;5.70;99.90;;;;;;4916571;29;20592;-70
2022/12/27 18:59:16;;;;;;;15.63;7.45;;;5.60;99.90;;;;;;4908333;29;20032;-69
2022/12/27 19:01:43;;;;;;;16.27;7.53;;;5.50;99.90;;;;;;4935775;29;20031;-73
2022/12/27 19:04:16;;;;;;;23.33;9.38;;;5.40;99.90;;;;;;4936343;29;20031;-71